Time;durP1;ratioP1;P1;durP2;ratioP2;P2;SDS_P1;SDS_P2;PMS_P1;PMS_P2;Temp;Humidity;BMP_temperature;BMP_pressure;BME280_temperature;BME280_humidity;BME280_pressure;Samples;Min_cycle;Max_cycle;Signal;HPM_P1;HPM_P2
2021/12/15 00:02:31;;;;;;;8.93;7.07;;;;;;;4.79;79.89;100290.91;5065694;28;20209;-67
2021/12/15 00:05:08;;;;;;;11.45;8.27;;;;;;;4.79;79.92;100290.03;5065704;28;20048;-67
2021/12/15 00:07:41;;;;;;;9.05;7.18;;;;;;;4.82;79.87;100285.59;5065401;28;20040;-67
2021/12/15 00:10:14;;;;;;;9.73;7.93;;;;;;;4.86;79.92;100294.28;5065635;28;20220;-67
2021/12/15 00:12:47;;;;;;;13.70;8.52;;;;;;;4.90;79.77;100296.00;5065586;28;20052;-67
2021/12/15 00:15:22;;;;;;;12.68;8.10;;;;;;;4.90;79.98;100293.38;5102692;28;20063;-67
2021/12/15 00:17:56;;;;;;;11.25;8.85;;;;;;;4.89;80.11;100298.63;5105855;28;20054;-67
2021/12/15 00:20:29;;;;;;;10.73;8.85;;;;;;;4.88;80.23;100299.53;5105880;28;20048;-67
2021/12/15 00:23:04;;;;;;;10.43;8.00;;;;;;;4.89;80.24;100291.66;5105078;28;20048;-68
2021/12/15 00:25:39;;;;;;;10.43;8.50;;;;;;;4.90;80.41;100298.63;5105787;28;20044;-67
2021/12/15 00:28:12;;;;;;;9.98;7.78;;;;;;;4.40;80.29;100218.94;5105760;28;20173;-67
2021/12/15 00:30:45;;;;;;;11.93;8.77;;;;;;;3.20;80.13;100039.84;5105755;28;20036;-67
2021/12/15 00:33:17;;;;;;;10.20;8.00;;;;;;;3.17;80.25;100003.19;5105807;28;20040;-67
2021/12/15 00:35:50;;;;;;;9.15;7.97;;;;;;;4.82;80.50;100293.47;5106769;28;20071;-67
2021/12/15 00:38:24;;;;;;;9.32;7.90;;;;;;;4.78;80.49;100288.31;5109750;28;20039;-67
2021/12/15 00:40:56;;;;;;;10.40;8.05;;;;;;;4.80;80.31;100292.63;5109763;28;20047;-67
2021/12/15 00:43:28;;;;;;;11.55;8.10;;;;;;;4.78;80.56;100286.56;5109380;28;20320;-67
2021/12/15 00:46:01;;;;;;;11.20;8.43;;;;;;;4.80;80.55;100281.28;5109676;28;20043;-68
2021/12/15 00:48:34;;;;;;;10.60;7.85;;;;;;;4.79;80.66;100316.31;5109561;28;20047;-67
2021/12/15 00:51:06;;;;;;;12.25;7.43;;;;;;;4.76;80.83;100288.34;5109519;28;20212;-68
2021/12/15 00:53:40;;;;;;;9.70;7.57;;;;;;;4.80;80.45;100294.41;5109491;28;20048;-68
2021/12/15 00:56:12;;;;;;;9.95;7.18;;;;;;;3.38;80.31;100065.75;5109381;28;20170;-67
2021/12/15 00:58:44;;;;;;;8.27;6.32;;;;;;;4.79;80.71;100295.28;5109130;28;20204;-67
2021/12/15 01:01:17;;;;;;;8.35;7.07;;;;;;;4.79;80.62;100298.78;5109098;28;20040;-67
2021/12/15 01:03:50;;;;;;;9.20;7.50;;;;;;;4.78;80.68;100304.06;5109263;28;20048;-67
2021/12/15 01:06:22;;;;;;;10.13;8.25;;;;;;;4.78;80.70;100298.81;5109218;28;20058;-67
2021/12/15 01:09:01;;;;;;;8.15;7.35;;;;;;;4.78;81.01;100302.31;5109178;28;20048;-67
2021/12/15 01:11:52;;;;;;;10.55;7.90;;;;;;;4.76;80.96;100332.97;5108903;28;20040;-67
2021/12/15 01:14:36;;;;;;;7.47;6.72;;;;;;;4.76;80.85;100308.47;5108547;28;20094;-67
2021/12/15 01:20:00;;;;;;;7.70;6.18;;;;;;;3.23;80.65;100044.16;5108973;28;20047;-68
2021/12/15 01:22:38;;;;;;;8.52;5.70;;;;;;;4.77;80.75;100304.97;5108920;28;20284;-67
2021/12/15 01:25:16;;;;;;;7.95;6.35;;;;;;;4.75;80.64;100309.38;5108847;28;20058;-67
2021/12/15 01:27:49;;;;;;;7.25;6.00;;;;;;;4.76;80.60;100308.47;5108598;28;20204;-67
2021/12/15 01:30:24;;;;;;;7.55;6.35;;;;;;;4.72;80.46;100317.28;5108780;28;20048;-67
2021/12/15 01:32:59;;;;;;;8.73;7.18;;;;;;;4.72;80.31;100305.03;5108742;28;20048;-67
2021/12/15 01:35:32;;;;;;;8.15;6.07;;;;;;;4.49;80.03;100268.66;5108594;28;20048;-67
2021/12/15 01:38:06;;;;;;;8.48;7.47;;;;;;;3.01;79.75;100023.50;5108650;28;20047;-66
2021/12/15 01:40:43;;;;;;;8.77;6.68;;;;;;;4.73;79.97;100308.53;5108597;28;20044;-66
2021/12/15 01:43:21;;;;;;;9.10;7.07;;;;;;;4.73;79.86;100312.03;5108554;28;20058;-66
2021/12/15 01:48:56;;;;;;;11.77;8.50;;;;;;;4.72;79.78;100307.66;5108434;28;20048;-67
2021/12/15 01:51:28;;;;;;;10.55;7.78;;;;;;;4.72;79.75;100302.41;5108393;28;20208;-67
2021/12/15 01:54:01;;;;;;;10.73;8.05;;;;;;;4.73;79.83;100304.16;5108286;28;20048;-67
2021/12/15 01:56:35;;;;;;;10.90;8.32;;;;;;;4.71;79.97;100302.44;5108270;28;20051;-67
2021/12/15 01:59:08;;;;;;;10.07;8.60;;;;;;;4.73;79.76;100300.66;5107991;28;20040;-67
2021/12/15 02:01:41;;;;;;;10.23;7.80;;;;;;;4.74;79.55;100303.25;5107915;28;20047;-67
2021/12/15 02:04:16;;;;;;;9.75;7.30;;;;;;;4.72;79.63;100299.78;5107862;28;20040;-67
2021/12/15 02:06:49;;;;;;;11.75;8.18;;;;;;;4.73;79.64;100298.88;5108124;28;20043;-67
2021/12/15 02:09:35;;;;;;;9.82;8.27;;;;;;;4.72;79.83;100304.16;5108054;28;20047;-67
2021/12/15 02:12:11;;;;;;;10.40;9.25;;;;;;;4.72;79.73;100304.16;5108012;28;20040;-66
2021/12/15 02:14:43;;;;;;;10.32;8.20;;;;;;;4.71;79.63;100305.94;5107555;28;20071;-67
2021/12/15 02:17:16;;;;;;;10.45;8.15;;;;;;;4.72;79.43;100301.53;5107785;28;20055;-67
2021/12/15 02:19:48;;;;;;;9.30;7.38;;;;;;;4.71;79.69;100302.44;5107841;28;20051;-67
2021/12/15 02:22:22;;;;;;;10.75;7.78;;;;;;;4.69;79.32;100304.22;5107599;28;20048;-67
2021/12/15 02:24:55;;;;;;;11.60;9.63;;;;;;;4.70;79.35;100304.19;5107633;28;20039;-66
2021/12/15 02:27:33;;;;;;;10.88;8.63;;;;;;;4.71;79.24;100303.31;5107524;28;20043;-67
2021/12/15 02:30:24;;;;;;;10.32;8.38;;;;;;;4.72;79.37;100299.78;5107492;28;20040;-67
2021/12/15 02:33:10;;;;;;;10.80;7.55;;;;;;;4.72;79.30;100304.16;5107424;28;20040;-69
2021/12/15 02:38:40;;;;;;;9.30;7.20;;;;;;;4.71;79.10;100303.31;5107305;28;20059;-67
2021/12/15 02:41:20;;;;;;;10.30;7.15;;;;;;;4.72;79.19;100294.53;5107004;28;20051;-67
2021/12/15 02:43:56;;;;;;;9.20;7.18;;;;;;;4.71;78.88;100297.19;5107151;28;20047;-67
2021/12/15 02:46:31;;;;;;;9.27;7.28;;;;;;;4.73;78.72;100305.91;5107290;28;20066;-67
2021/12/15 02:49:06;;;;;;;8.82;7.53;;;;;;;4.72;78.89;100298.91;5107019;28;20051;-67
2021/12/15 02:51:41;;;;;;;9.05;7.60;;;;;;;4.70;78.55;100301.56;5107237;28;20036;-67
2021/12/15 02:54:18;;;;;;;8.68;7.57;;;;;;;4.72;78.57;100298.91;5106854;28;20047;-67
2021/12/15 02:56:52;;;;;;;11.23;7.80;;;;;;;4.68;78.61;100311.22;5107024;28;20059;-67
2021/12/15 02:59:31;;;;;;;8.63;7.25;;;;;;;4.74;78.57;100312.88;5105922;28;20039;-67
2021/12/15 03:02:11;;;;;;;10.60;7.50;;;;;;;4.74;78.70;100319.00;5106719;28;20040;-67
2021/12/15 03:04:48;;;;;;;9.25;7.57;;;;;;;4.71;78.78;100313.81;5107010;28;20296;-67
2021/12/15 03:07:29;;;;;;;8.45;6.50;;;;;;;4.74;78.69;100318.13;5106618;28;20051;-67
2021/12/15 03:15:42;;;;;;;7.82;6.55;;;;;;;4.46;78.55;100271.31;5106745;28;20058;-67
2021/12/15 03:18:17;;;;;;;8.43;7.35;;;;;;;4.73;78.45;100313.78;5106602;28;20066;-67
2021/12/15 03:20:55;;;;;;;8.35;7.22;;;;;;;4.70;78.62;100317.31;5106687;28;20047;-67
2021/12/15 03:23:33;;;;;;;8.65;6.93;;;;;;;4.73;78.53;100319.91;5106618;28;20040;-67
2021/12/15 03:26:08;;;;;;;9.20;7.32;;;;;;;4.76;78.47;100327.72;5106572;28;20059;-67
2021/12/15 03:34:41;;;;;;;7.18;6.07;;;;;;;4.75;78.30;100333.88;5106183;28;20287;-67
2021/12/15 03:37:25;;;;;;;6.75;5.93;;;;;;;4.72;78.29;100327.81;5106318;28;20048;-67
2021/12/15 03:40:01;;;;;;;7.88;6.05;;;;;;;4.68;78.40;100332.22;5106463;28;20047;-68
2021/12/15 03:42:40;;;;;;;7.55;6.32;;;;;;;4.71;78.26;100333.94;5106292;28;20047;-68
2021/12/15 03:45:14;;;;;;;7.95;6.38;;;;;;;4.71;78.32;100341.81;5106283;28;20280;-67
2021/12/15 03:47:50;;;;;;;6.32;5.45;;;;;;;3.52;78.12;100145.03;5105984;28;20054;-67
2021/12/15 03:50:24;;;;;;;7.35;5.63;;;;;;;4.67;78.32;100340.13;5106274;28;20044;-67
2021/12/15 03:52:57;;;;;;;6.45;4.57;;;;;;;4.71;78.28;100345.31;5106200;28;20047;-67
2021/12/15 03:55:32;;;;;;;6.10;5.07;;;;;;;4.70;78.17;100346.22;5106127;28;20047;-67
2021/12/15 03:58:10;;;;;;;5.72;4.40;;;;;;;4.68;78.21;100337.50;5106032;28;20067;-67
2021/12/15 04:00:46;;;;;;;6.47;5.18;;;;;;;4.67;78.37;100338.38;5106083;28;20200;-67
2021/12/15 04:03:22;;;;;;;5.85;5.07;;;;;;;4.66;78.29;100328.75;5106035;28;20056;-67
2021/12/15 04:05:56;;;;;;;6.93;5.25;;;;;;;4.66;78.23;100334.00;5106037;28;20040;-67
2021/12/15 04:08:29;;;;;;;5.40;4.82;;;;;;;4.67;78.12;100337.50;5105697;28;20044;-67
2021/12/15 04:11:05;;;;;;;5.40;4.90;;;;;;;4.64;78.32;100335.81;5104968;28;20067;-67
2021/12/15 04:13:39;;;;;;;6.70;5.30;;;;;;;4.63;78.20;100336.69;5105547;28;20075;-68
2021/12/15 04:16:26;;;;;;;6.43;5.15;;;;;;;4.64;78.31;100348.94;5105625;28;20079;-68
2021/12/15 04:18:59;;;;;;;6.18;4.95;;;;;;;4.64;78.31;100354.19;5105824;28;20036;-67
2021/12/15 04:21:31;;;;;;;5.30;4.78;;;;;;;4.66;78.37;100357.66;5105873;28;20055;-67
2021/12/15 04:24:04;;;;;;;4.82;4.32;;;;;;;4.64;78.31;100359.44;5105844;28;20305;-67
2021/12/15 04:26:36;;;;;;;5.45;4.85;;;;;;;4.64;78.27;100364.69;5105770;28;20036;-67
2021/12/15 04:29:10;;;;;;;6.55;5.35;;;;;;;4.66;78.23;100360.28;5105760;28;20289;-67
2021/12/15 04:31:47;;;;;;;6.25;5.00;;;;;;;4.65;78.25;100369.03;5105704;28;20047;-67
2021/12/15 04:34:19;;;;;;;6.57;5.40;;;;;;;4.33;78.29;100308.28;5105695;28;20048;-68
2021/12/15 04:36:52;;;;;;;6.35;5.45;;;;;;;4.65;78.10;100370.81;5105727;28;20212;-68
2021/12/15 04:39:25;;;;;;;7.22;5.13;;;;;;;4.68;78.15;100370.75;5105631;28;20070;-68
2021/12/15 04:42:00;;;;;;;11.38;5.15;;;;;;;3.19;77.93;100137.63;5105649;28;20204;-67
2021/12/15 04:44:32;;;;;;;6.32;5.18;;;;;;;4.71;78.05;100374.19;5105414;28;20043;-67
2021/12/15 04:47:09;;;;;;;6.18;4.53;;;;;;;4.71;78.09;100375.97;5105333;28;20051;-67
2021/12/15 04:49:44;;;;;;;6.28;5.28;;;;;;;4.68;78.13;100376.88;5105555;28;20092;-67
2021/12/15 04:52:19;;;;;;;6.40;5.20;;;;;;;3.89;78.13;100241.53;5105294;28;20047;-67
2021/12/15 04:54:52;;;;;;;6.00;5.05;;;;;;;4.72;78.19;100383.81;5105589;28;20285;-67
2021/12/15 04:57:25;;;;;;;5.75;4.88;;;;;;;4.73;78.11;100385.56;5105491;28;20047;-67
2021/12/15 04:59:58;;;;;;;6.63;5.90;;;;;;;4.71;78.01;100382.09;5105154;28;20047;-68
2021/12/15 05:02:31;;;;;;;7.57;6.30;;;;;;;4.73;77.91;100387.31;5106023;28;20059;-67
2021/12/15 05:05:05;;;;;;;6.57;5.53;;;;;;;4.73;77.81;100380.31;5105453;28;20066;-68
2021/12/15 05:07:38;;;;;;;6.85;5.40;;;;;;;4.72;77.89;100386.44;5105411;28;20312;-68
2021/12/15 05:10:11;;;;;;;6.38;5.78;;;;;;;4.74;77.81;100381.16;5105402;28;20059;-68
2021/12/15 05:12:44;;;;;;;5.78;4.93;;;;;;;4.78;77.58;100383.72;5105142;28;20051;-67
2021/12/15 05:15:18;;;;;;;6.72;5.85;;;;;;;4.77;77.56;100382.00;5104886;28;20040;-68
2021/12/15 05:17:51;;;;;;;6.30;5.63;;;;;;;4.75;77.37;100382.91;5105251;28;20060;-68
2021/12/15 05:20:24;;;;;;;6.63;5.00;;;;;;;4.76;77.52;100385.50;5105239;28;20048;-67
2021/12/15 05:22:57;;;;;;;6.70;5.43;;;;;;;4.76;77.26;100390.75;5108022;28;20047;-67
2021/12/15 05:25:29;;;;;;;7.20;5.18;;;;;;;4.74;77.44;100384.66;5108944;28;20283;-68
2021/12/15 05:28:02;;;;;;;6.50;5.55;;;;;;;4.75;77.33;100391.66;5108571;28;20212;-67
2021/12/15 05:30:36;;;;;;;5.75;5.00;;;;;;;4.74;77.37;100389.03;5108830;28;20047;-68
2021/12/15 05:33:09;;;;;;;6.50;5.05;;;;;;;4.72;77.36;100394.31;5108801;28;20048;-67
2021/12/15 05:35:41;;;;;;;5.90;4.63;;;;;;;4.00;77.27;100297.34;5108732;28;20048;-67
2021/12/15 05:38:14;;;;;;;6.25;5.65;;;;;;;4.72;77.40;100401.34;5108625;28;20048;-67
2021/12/15 05:40:46;;;;;;;6.65;5.07;;;;;;;3.09;77.32;100173.56;5108507;28;20048;-68
2021/12/15 05:43:19;;;;;;;6.75;5.80;;;;;;;4.44;77.56;100364.09;5108306;28;20212;-67
2021/12/15 05:45:53;;;;;;;6.35;4.90;;;;;;;4.72;77.27;100446.84;5108325;28;20071;-67
2021/12/15 05:48:26;;;;;;;6.75;5.68;;;;;;;4.74;77.36;100418.81;5108507;28;20044;-67
2021/12/15 05:50:58;;;;;;;7.72;5.80;;;;;;;4.75;77.41;100417.91;5108200;28;20040;-68
2021/12/15 05:53:30;;;;;;;6.68;5.70;;;;;;;4.75;77.24;100423.16;5108357;28;20208;-68
2021/12/15 05:56:03;;;;;;;6.38;5.57;;;;;;;4.73;77.16;100426.69;5108080;28;20043;-67
2021/12/15 05:58:37;;;;;;;6.03;5.38;;;;;;;4.73;77.08;100427.56;5108251;28;20044;-68
2021/12/15 06:01:11;;;;;;;6.75;5.43;;;;;;;4.71;76.94;100429.34;5108722;28;20059;-68
2021/12/15 06:03:43;;;;;;;8.00;6.35;;;;;;;4.73;76.78;100434.56;5107431;28;20040;-68
2021/12/15 06:06:15;;;;;;;8.00;6.60;;;;;;;4.76;76.80;100442.41;5108131;28;20048;-67
2021/12/15 06:08:48;;;;;;;7.82;6.28;;;;;;;4.78;76.69;100441.50;5108023;28;20211;-67
2021/12/15 06:11:20;;;;;;;8.13;5.93;;;;;;;4.79;76.56;100445.88;5107765;28;20066;-68
2021/12/15 06:13:53;;;;;;;7.25;6.22;;;;;;;4.81;76.76;100451.97;5107599;28;20173;-68
2021/12/15 06:16:28;;;;;;;7.07;5.55;;;;;;;4.80;76.85;100452.84;5107326;28;20052;-67
2021/12/15 06:19:02;;;;;;;6.15;5.55;;;;;;;4.77;76.61;100449.41;5106989;28;20048;-68
2021/12/15 06:21:35;;;;;;;6.85;5.75;;;;;;;4.77;76.63;100449.41;5108307;28;20059;-68
2021/12/15 06:24:07;;;;;;;8.77;5.75;;;;;;;4.76;76.53;100455.53;5107729;28;20048;-67
2021/12/15 06:26:40;;;;;;;7.93;5.93;;;;;;;4.80;76.69;100454.63;5107452;28;20208;-67
2021/12/15 06:29:13;;;;;;;8.13;7.18;;;;;;;4.80;76.63;100459.88;5107060;28;20044;-67
2021/12/15 06:31:46;;;;;;;7.35;6.00;;;;;;;4.82;76.71;100458.09;5107476;28;20048;-68
2021/12/15 06:34:19;;;;;;;7.80;6.30;;;;;;;4.81;76.72;100472.97;5107284;28;20059;-68
2021/12/15 06:36:53;;;;;;;7.90;6.72;;;;;;;4.81;76.57;100480.84;5107447;28;20059;-68
2021/12/15 06:39:25;;;;;;;9.18;6.72;;;;;;;4.81;76.48;100478.22;5108071;28;20188;-67
2021/12/15 06:41:58;;;;;;;10.10;7.75;;;;;;;4.83;76.68;100486.09;5107426;28;20292;-67
2021/12/15 06:44:28;;;;;;;10.30;8.02;;;;;;;0.28;76.13;99712.94;5107245;28;20047;-67
2021/12/15 06:47:23;;;;;;;9.75;7.80;;;;;;;4.88;76.33;100496.53;5107130;28;20044;-67
2021/12/15 06:58:27;;;;;;;10.15;7.47;;;;;;;4.94;76.35;100518.38;5106911;28;20051;-67
2021/12/15 07:01:02;;;;;;;9.13;6.78;;;;;;;4.96;76.33;100515.72;5107529;28;20048;-68
2021/12/15 07:03:36;;;;;;;8.10;6.43;;;;;;;4.94;76.06;100514.88;5106713;28;20040;-67
2021/12/15 07:06:08;;;;;;;9.18;7.38;;;;;;;4.93;76.26;100513.13;5106933;28;20059;-67
2021/12/15 07:08:41;;;;;;;10.60;7.95;;;;;;;4.95;76.07;100514.84;5106828;28;20055;-67
2021/12/15 07:11:13;;;;;;;9.27;7.13;;;;;;;4.98;76.19;100521.81;5106575;28;20040;-67
2021/12/15 07:13:46;;;;;;;10.63;7.40;;;;;;;4.99;76.06;100527.06;5106852;28;20300;-67
2021/12/15 07:16:19;;;;;;;11.18;8.27;;;;;;;5.03;76.16;100523.50;5106279;28;20070;-67
2021/12/15 07:19:05;;;;;;;9.20;8.20;;;;;;;5.03;75.97;100527.88;5106653;28;20048;-67
2021/12/15 07:21:41;;;;;;;11.68;8.23;;;;;;;5.05;75.96;100534.84;5106643;28;20047;-67
2021/12/15 07:24:13;;;;;;;11.23;9.43;;;;;;;5.03;75.90;100531.38;5106595;28;20047;-67
2021/12/15 07:26:46;;;;;;;9.27;7.93;;;;;;;5.06;75.75;100530.47;5106291;28;20051;-67
2021/12/15 07:29:18;;;;;;;9.10;7.22;;;;;;;5.04;75.82;100538.38;5106494;28;20055;-67
2021/12/15 07:31:50;;;;;;;7.93;7.10;;;;;;;5.06;75.78;100538.34;5106171;28;20040;-67
2021/12/15 07:34:24;;;;;;;11.07;6.97;;;;;;;5.05;76.13;100539.25;5106250;28;20051;-67
2021/12/15 07:36:57;;;;;;;8.40;6.70;;;;;;;5.01;75.64;100537.53;5106303;28;20043;-67
2021/12/15 07:39:29;;;;;;;8.45;6.55;;;;;;;5.05;75.84;100541.88;5105965;28;20449;-67
2021/12/15 07:42:06;;;;;;;7.38;5.80;;;;;;;5.01;75.88;100542.78;5105866;28;20040;-66
2021/12/15 07:44:35;;;;;;;8.65;6.68;;;;;;;4.99;75.82;100544.56;5105726;28;20077;-67
2021/12/15 07:47:07;;;;;;;7.32;6.13;;;;;;;4.98;75.94;100548.97;5106295;28;20048;-67
2021/12/15 07:49:37;;;;;;;8.18;6.28;;;;;;;5.01;76.06;100553.31;5106239;28;20040;-67
2021/12/15 07:52:07;;;;;;;8.07;6.25;;;;;;;5.01;76.03;100558.56;5106131;28;20040;-67
2021/12/15 07:54:37;;;;;;;7.47;6.20;;;;;;;5.03;75.87;100564.66;5106087;28;20040;-67
2021/12/15 07:57:09;;;;;;;6.95;5.72;;;;;;;5.00;75.94;100567.34;5105839;28;20200;-67
2021/12/15 07:59:37;;;;;;;7.30;5.88;;;;;;;4.65;75.92;100505.59;5105730;28;20047;-67
2021/12/15 08:02:07;;;;;;;7.18;6.40;;;;;;;5.05;75.89;100568.13;5105920;28;20040;-66
2021/12/15 08:04:38;;;;;;;9.02;7.50;;;;;;;5.08;75.66;100573.34;5105730;28;20059;-67
2021/12/15 08:07:07;;;;;;;8.65;7.28;;;;;;;5.08;75.55;100568.97;5105740;28;20040;-67
2021/12/15 08:09:37;;;;;;;8.73;6.25;;;;;;;5.12;75.73;100575.06;5105070;28;20048;-67
2021/12/15 08:12:09;;;;;;;8.98;7.03;;;;;;;5.13;75.61;100575.03;5105881;28;20047;-67
2021/12/15 08:14:39;;;;;;;7.93;6.70;;;;;;;5.16;75.64;100579.38;5105724;28;20028;-67
2021/12/15 08:17:08;;;;;;;8.65;6.63;;;;;;;5.15;75.52;100577.63;5105442;28;20312;-66
2021/12/15 08:19:40;;;;;;;8.23;6.50;;;;;;;5.21;75.42;100576.69;5105662;28;20059;-68
2021/12/15 08:22:09;;;;;;;10.32;7.32;;;;;;;5.24;75.53;100574.00;5105966;28;20035;-68
2021/12/15 08:24:39;;;;;;;8.38;6.55;;;;;;;5.29;75.38;100575.69;5104939;28;20093;-68
2021/12/15 08:27:09;;;;;;;6.80;5.53;;;;;;;5.28;75.21;100579.19;5105525;28;20048;-68
2021/12/15 08:29:39;;;;;;;7.65;6.00;;;;;;;3.88;75.09;100344.69;5105623;28;20208;-68
2021/12/15 08:32:10;;;;;;;8.50;6.03;;;;;;;5.06;75.14;100549.72;5105637;28;20044;-68
2021/12/15 08:34:41;;;;;;;10.15;6.57;;;;;;;5.31;75.24;100587.03;5105344;28;20085;-68
2021/12/15 08:37:13;;;;;;;7.80;5.78;;;;;;;5.33;75.28;100587.03;5105520;28;20067;-67
2021/12/15 08:39:41;;;;;;;8.75;6.50;;;;;;;5.36;75.30;100602.75;5105059;28;20295;-68
2021/12/15 08:42:12;;;;;;;9.25;7.38;;;;;;;3.62;75.09;100296.97;5105554;28;20078;-68
2021/12/15 08:44:41;;;;;;;9.05;6.97;;;;;;;5.38;75.08;100603.59;5105547;28;20044;-68
2021/12/15 08:47:11;;;;;;;6.40;5.28;;;;;;;5.40;75.32;100604.44;5105479;28;20055;-68
2021/12/15 08:49:43;;;;;;;9.30;6.53;;;;;;;5.41;75.29;100596.53;5105506;28;20060;-67
2021/12/15 08:52:12;;;;;;;9.73;7.53;;;;;;;5.41;75.11;100606.19;5105478;28;20055;-69
2021/12/15 08:54:42;;;;;;;8.68;6.68;;;;;;;5.41;75.32;100607.06;5105404;28;20048;-69
2021/12/15 08:57:13;;;;;;;9.57;5.82;;;;;;;5.42;75.12;100610.56;5107162;28;20040;-67
2021/12/15 08:59:44;;;;;;;7.85;6.50;;;;;;;5.40;75.13;100609.72;5109339;28;20106;-68
2021/12/15 09:02:14;;;;;;;12.13;8.60;;;;;;;5.40;75.25;100614.97;5109315;28;20048;-68
2021/12/15 09:04:46;;;;;;;9.52;6.95;;;;;;;5.38;75.16;100617.63;5109005;28;20040;-69
2021/12/15 09:07:14;;;;;;;9.10;7.07;;;;;;;5.41;75.26;100614.94;5109210;28;20055;-69
2021/12/15 09:09:45;;;;;;;9.35;5.95;;;;;;;5.19;75.08;100576.69;5109259;28;20044;-69
2021/12/15 09:12:18;;;;;;;8.30;6.15;;;;;;;5.19;75.08;100575.84;5109129;28;20048;-68
2021/12/15 09:14:51;;;;;;;8.55;6.82;;;;;;;5.44;75.52;100646.44;5109075;28;20199;-68
2021/12/15 09:17:23;;;;;;;7.30;6.30;;;;;;;5.48;75.33;100628.00;5108370;28;20068;-67
2021/12/15 09:19:57;;;;;;;9.10;7.25;;;;;;;5.41;75.25;100622.84;5108753;28;20059;-66
2021/12/15 09:22:30;;;;;;;8.43;5.90;;;;;;;5.44;75.62;100624.56;5108947;28;20071;-68
2021/12/15 09:25:02;;;;;;;9.80;8.07;;;;;;;5.43;75.66;100628.94;5109137;28;20071;-67
2021/12/15 09:27:35;;;;;;;7.40;6.40;;;;;;;5.44;75.60;100619.28;5108725;28;20315;-67
2021/12/15 09:30:09;;;;;;;9.07;6.15;;;;;;;5.48;75.86;100622.75;5108668;28;20292;-66
2021/12/15 09:32:42;;;;;;;12.50;8.43;;;;;;;5.46;76.14;100625.41;5108619;28;20059;-67
2021/12/15 09:35:18;;;;;;;9.20;7.20;;;;;;;5.48;76.09;100620.13;5108529;28;20036;-66
2021/12/15 09:37:51;;;;;;;10.43;7.30;;;;;;;5.52;76.13;100619.19;5108686;28;20044;-71
2021/12/15 09:40:25;;;;;;;8.73;7.13;;;;;;;3.73;75.94;100297.69;5108481;28;20212;-68
2021/12/15 09:42:57;;;;;;;9.48;6.45;;;;;;;5.59;76.38;100652.38;5108641;28;20242;-68
2021/12/15 09:45:39;;;;;;;6.90;5.68;;;;;;;5.60;76.14;100614.69;5108510;28;20047;-68
2021/12/15 09:57:10;;;;;;;7.72;6.55;;;;;;;5.66;75.33;100622.47;5108207;28;20312;-68
2021/12/15 10:02:42;;;;;;;8.52;6.63;;;;;;;5.67;75.52;100625.09;5108161;28;20059;-67
2021/12/15 10:05:37;;;;;;;7.18;5.45;;;;;;;5.68;75.26;100618.94;5107687;28;20051;-67
2021/12/15 10:11:19;;;;;;;11.48;6.72;;;;;;;5.69;75.35;100622.44;5107696;28;20051;-68
2021/12/15 10:19:37;;;;;;;8.50;5.95;;;;;;;5.71;75.48;100610.13;5107834;28;20047;-68
2021/12/15 10:22:27;;;;;;;8.10;5.65;;;;;;;5.71;75.29;100605.72;5107604;28;20063;-67
2021/12/15 10:25:06;;;;;;;6.43;5.32;;;;;;;5.72;74.93;100609.22;5106944;28;20036;-68
2021/12/15 10:27:43;;;;;;;7.70;6.15;;;;;;;5.70;74.91;100595.22;5107423;28;20058;-68
2021/12/15 10:30:22;;;;;;;7.40;5.65;;;;;;;5.69;75.13;100594.38;5107493;28;20048;-67
2021/12/15 10:33:00;;;;;;;7.53;6.03;;;;;;;5.72;75.04;100596.06;5106505;28;20036;-68
2021/12/15 10:35:37;;;;;;;7.85;6.43;;;;;;;5.74;75.27;100610.06;5107495;28;20048;-68
2021/12/15 10:38:18;;;;;;;7.63;5.05;;;;;;;5.77;74.97;100591.63;5107352;28;20047;-68
2021/12/15 10:41:05;;;;;;;7.70;5.95;;;;;;;5.80;74.82;100601.22;5107106;28;20112;-68
2021/12/15 10:43:41;;;;;;;6.80;5.75;;;;;;;5.78;74.98;100596.84;5106907;28;20047;-67
2021/12/15 10:46:16;;;;;;;7.47;5.10;;;;;;;5.77;75.21;100597.75;5107060;28;20048;-68
2021/12/15 10:48:53;;;;;;;5.85;4.80;;;;;;;5.77;75.14;100588.97;5107141;28;20059;-68
2021/12/15 10:51:38;;;;;;;7.60;5.75;;;;;;;5.78;74.82;100580.19;5106921;28;20047;-68
2021/12/15 10:54:13;;;;;;;8.40;5.75;;;;;;;5.78;74.95;100573.16;5107922;28;20047;-68
2021/12/15 10:56:53;;;;;;;6.32;4.82;;;;;;;5.87;74.76;100580.03;5106766;28;20047;-68
2021/12/15 10:59:29;;;;;;;6.03;5.40;;;;;;;5.91;74.63;100600.16;5107008;28;20048;-67
2021/12/15 11:02:05;;;;;;;7.65;5.78;;;;;;;5.94;74.29;100584.31;5107287;28;20059;-68
2021/12/15 11:04:44;;;;;;;7.13;5.57;;;;;;;5.70;74.57;100548.75;5107599;28;20048;-68
2021/12/15 11:07:24;;;;;;;9.98;7.47;;;;;;;5.94;74.81;100575.56;5106599;28;20048;-68
2021/12/15 11:09:56;;;;;;;9.23;6.75;;;;;;;6.01;74.81;100579.81;5106244;28;20109;-68
2021/12/15 11:12:34;;;;;;;6.78;5.05;;;;;;;6.01;74.35;100577.19;5106332;28;20040;-68
2021/12/15 11:15:10;;;;;;;5.80;4.78;;;;;;;5.99;74.49;100574.56;5106460;28;20040;-68
2021/12/15 11:17:46;;;;;;;7.00;5.20;;;;;;;5.74;74.42;100582.00;5065767;28;20041;-69
2021/12/15 11:20:23;;;;;;;7.45;5.15;;;;;;;5.99;74.01;100573.72;5065331;28;20053;-67
2021/12/15 11:23:01;;;;;;;6.40;5.00;;;;;;;5.99;74.20;100571.94;5066125;28;20040;-67
2021/12/15 11:25:37;;;;;;;6.78;5.28;;;;;;;6.01;74.11;100571.91;5065303;28;20048;-68
2021/12/15 11:28:18;;;;;;;7.07;6.38;;;;;;;6.02;74.06;100557.88;5066243;28;20059;-67
2021/12/15 11:30:56;;;;;;;8.23;6.00;;;;;;;6.01;74.16;100564.88;5065783;28;20052;-67
2021/12/15 11:33:32;;;;;;;8.93;6.18;;;;;;;6.02;74.35;100571.03;5066049;28;20048;-67
2021/12/15 11:36:08;;;;;;;9.48;6.18;;;;;;;5.72;74.39;100519.78;5065728;28;20037;-68
2021/12/15 11:38:43;;;;;;;6.45;5.03;;;;;;;6.03;73.92;100583.28;5065985;28;20041;-69
2021/12/15 11:41:18;;;;;;;7.85;6.13;;;;;;;5.98;74.00;100577.22;5066607;28;20064;-68
2021/12/15 11:43:54;;;;;;;6.38;5.00;;;;;;;5.97;73.53;100565.84;5065853;28;20060;-68
2021/12/15 11:46:29;;;;;;;7.22;5.60;;;;;;;5.97;73.75;100563.22;5065560;28;20041;-69
2021/12/15 11:49:05;;;;;;;17.25;5.75;;;;;;;5.97;73.64;100557.06;5065382;28;20301;-69
2021/12/15 11:51:42;;;;;;;7.90;5.88;;;;;;;6.00;73.63;100554.41;5065580;28;20045;-68
2021/12/15 11:54:20;;;;;;;6.90;5.22;;;;;;;6.03;73.59;100554.34;5065844;28;20049;-68
2021/12/15 11:56:56;;;;;;;8.00;6.00;;;;;;;6.02;73.79;100542.94;5065691;28;20078;-68
2021/12/15 11:59:31;;;;;;;7.80;5.53;;;;;;;6.07;73.85;100541.09;5065598;28;20049;-68
2021/12/15 12:02:08;;;;;;;6.55;5.55;;;;;;;6.07;73.52;100546.38;5065543;28;20044;-68
2021/12/15 12:04:42;;;;;;;6.82;5.43;;;;;;;6.08;73.14;100532.31;5065315;28;20057;-68
2021/12/15 12:07:20;;;;;;;7.75;5.30;;;;;;;6.07;72.86;100533.19;5065467;28;20041;-68
2021/12/15 12:09:53;;;;;;;6.97;5.40;;;;;;;6.06;72.79;100517.44;5065549;28;20087;-67
2021/12/15 12:12:30;;;;;;;7.43;6.25;;;;;;;6.14;73.21;100522.56;5065389;28;20056;-68
2021/12/15 12:15:13;;;;;;;9.57;6.53;;;;;;;4.70;72.59;100298.06;5065976;28;20059;-67
2021/12/15 12:17:49;;;;;;;6.45;5.47;;;;;;;6.18;72.58;100522.47;5065270;28;20196;-67
2021/12/15 12:20:25;;;;;;;8.82;6.45;;;;;;;6.16;72.97;100515.50;5065165;28;20041;-67
2021/12/15 12:22:59;;;;;;;7.35;5.63;;;;;;;6.16;72.84;100511.09;5065127;28;20048;-67
2021/12/15 12:25:37;;;;;;;7.57;5.22;;;;;;;6.19;72.82;100508.41;5064795;28;20040;-68
2021/12/15 12:28:14;;;;;;;9.35;5.07;;;;;;;6.26;72.78;100504.78;5065127;28;20049;-68
2021/12/15 12:30:51;;;;;;;7.47;5.55;;;;;;;6.34;72.81;100502.00;5066097;28;20059;-67
2021/12/15 12:33:25;;;;;;;8.63;5.93;;;;;;;6.48;72.46;100502.56;5069046;28;20171;-67
2021/12/15 12:36:04;;;;;;;8.40;5.88;;;;;;;6.59;72.06;100508.50;5069359;28;20049;-67
2021/12/15 12:38:40;;;;;;;6.40;5.35;;;;;;;6.72;72.15;100496.81;5069233;28;20052;-67
2021/12/15 12:41:16;;;;;;;6.38;5.05;;;;;;;6.82;71.56;100504.53;5069427;28;20067;-66
2021/12/15 12:43:51;;;;;;;6.90;5.28;;;;;;;6.87;71.30;100503.53;5068987;28;20150;-67
2021/12/15 12:46:28;;;;;;;6.57;5.25;;;;;;;6.83;70.60;100504.50;5069343;28;20048;-67
2021/12/15 12:49:48;;;;;;;7.60;5.32;;;;;;;5.59;70.73;100319.25;5069132;28;20056;-67
2021/12/15 13:01:05;;;;;;;7.22;5.22;;;;;;;6.90;70.85;100519.28;5049278;28;20049;-68
2021/12/15 13:03:43;;;;;;;6.85;5.30;;;;;;;7.01;70.71;100519.06;5068830;28;20296;-68
2021/12/15 13:06:18;;;;;;;7.30;5.20;;;;;;;7.11;70.32;100517.06;5068619;28;20289;-67